Aérodrome :
LOGIN :

S'inscrire | Disclaimer

   EN    FR    IT 

 










Légende :    VFR   VFR Marginal   IFR   IFR Intensif   IFR Très Intensif
Visi : 
Plafond : 
>= 8 km
>= 3000ft
5 à 8 km
1000 à 3000 ft
1500m à 5 km
500 à 1000 ft
800 à 1500m
200 à 500 ft
< 800m
< 200 ft
Symboles :   Orages  Brouillard  Fortes neiges  Fortes précipitations  Vent > 20 kt
SIGMETs :   Divers  Orages  Givrage  Turbulence  Onde Orograph.  Cendres Volcan.






- Altitude de l'aérodrome : 74 ft
- Code IATA : EIN


EHEH - Eindhoven

DERNIER METAR :
  • 170425Z AUTO 18004KT 160V220 9999 OVC054 14/13 Q1009 BLU

METARs EXPIRÉS :
  • 170355Z AUTO 20002KT 9999 BKN061 OVC067 13/13 Q1009 BLU
  • 170325Z AUTO 18003KT 9999 BKN060 OVC069 13/12 Q1009 BLU
  • 170309Z AUTO 19002KT 9999 OVC067 13/12 Q1009 BLU
  • 170255Z AUTO 21002KT 8000 BR BKN065 OVC070 13/12 Q1009 BLU
  • 170225Z AUTO 17004KT 160V220 9999 BKN088 OVC120 13/12 Q1008 BLU
  • 170155Z AUTO 19003KT 9999 SCT068 BKN074 OVC084 13/12 Q1008 BLU
  • 170125Z AUTO 19004KT 9999 FEW076 OVC130 13/11 Q1008 BLU
  • 170055Z AUTO 19003KT 9999 FEW037 OVC130 13/11 Q1008 BLU
  • 170025Z AUTO 19003KT 9999 OVC130 13/11 Q1008 BLU
  • 162355Z AUTO 19003KT 9999 OVC120 13/11 Q1008 BLU

TAF TAF EHEH
Valide du 17 à 00h jusqu'au 18 à 06h UTC


162314Z 1700/1806 20006KT CAVOK
PROB40
TEMPO 1704/1708 4000 BR SCT006 BKN008
PROB30
TEMPO 1704/1708 SCT025CB BKN030
BECMG 1706/1708 SCT012 BKN016
BECMG 1708/1710 SCT022 BKN030
TEMPO 1708/1720 FEW015 SCT022CB BKN025
PROB40
TEMPO 1710/1720 24010G20KT 3000 TSRA SCT014 SCT020CB
BECMG 1717/1720 VRB02KT
PROB40
TEMPO 1800/1805 3500 BR MIFG



MET'MAP, la Météo Aéronautique d'un coup d'oeil ! - Copyright ORBIFLY Décembre 2007 - Disclaimer

ORBIFLY MET'MAP TEAM :

Programmation & Développement : Alexandra Zaïnal
Sur une idée originale de : Baudouin d'Aumeries
Soutien technique & logistique : Manuel Goepfert
Assistance : Marc-Olivier Méhu




SOURCES & CREDITS :

   NOAA